Terminal Aerodrome Forecast
Issued by NWS St Louis, MO

Home | Current Version | Previous Version | Text Only | Print | Product List | Glossary On
Versions: 1 2 3 4 5 6 7 8 9 10 11 12 13 14 15 16 17 18 19 20 21 22
431
FTUS43 KLSX 030520
TAFSTL
TAF
KSTL 030520Z 0306/0412 24012KT P6SM SKC
     FM030900 24014G22KT P6SM SKC
     FM031200 27016G26KT P6SM OVC020
     FM031900 29015G25KT P6SM BKN035
     FM040300 30012KT P6SM SCT030=

USA.gov is the U.S. government's official web portal to all federal, state and local government web resources and services.